Hovedside
METAR-TAF:

METAR-TAF

Lufthavner :

Réunion Roland Garros internasjonale lufthavn

Saint-Denis, Réunion

breddegrad: 20-53S, lengdegrad: 055-31E, høyde over havet: 21 m

Gjeldene værobservasjon

Denne rapporten ble laget for 35 minutter siden, klokken 06:00 UTC
Vind 15 kt fra Øst
Temperatur 30°C
Luftfuktighet 66%
Trykk 1017 hPa
Sikt 10 km eller mer
ingen skyer under 1500 m og ingen bygeskyer

METAR: FMEE 120600Z AUTO 08015KT CAVOK 30/23 Q1017 NOSIG

Tid: 10:35 (06:35 UTC)

Varsel

Denne rapporten ble laget for 1 time og 35 minutter siden, klokken 05:00 UTC
Varsel gyldig fra 12. klokken 06 UTC til 13. klokken 12 UTC
Vind 12 kt fra Øst
Sikt 10 km eller mer
Spredte skyer i en høyde av 2500 ft
Blir
fra 12. klokken 15 UTC til 12. klokken 17 UTC
Vind 6 kt fra Sør-sørøst
Blir
fra 13. klokken 03 UTC til 13. klokken 05 UTC
Vind 16 kt fra Øst

TAF: FMEE 120500Z 1206/1312 09012KT 9999 SCT025 BECMG 1215/1217 15006KT BECMG 1303/1305 08016KT

Værobservasjoner og værvarsel for over 4000 flyplasser (METAR- og TAF-rapporter).

Tilgjengelige stasjoner er representert av de røde og gule prikkene på kartet.

Hold musepekeren over prikken for å se navnet på stasjonen.

Klikk så for å se værobservasjoner og -varsler.

For å forandre kartet kan du klikke på den grønne knappen med svart kryss for å zoome inn, på den grønne knappen med strek for å zoome ut, eller på de grønne pilene for å se tilstøtende kart.


METAR-TAF: